Time;durP1;ratioP1;P1;durP2;ratioP2;P2;SDS_P1;SDS_P2;PMS_P1;PMS_P2;Temp;Humidity;BMP_temperature;BMP_pressure;BME280_temperature;BME280_humidity;BME280_pressure;Samples;Min_cycle;Max_cycle;Signal;HPM_P1;HPM_P2
2023/08/09 00:02:03;;;;;;;2.35;1.30;;;18.40;99.90;;;;;;5036865;28;20477;-76
2023/08/09 00:04:29;;;;;;;1.95;0.65;;;18.40;99.90;;;;;;5054278;28;20031;-77
2023/08/09 00:06:55;;;;;;;1.08;0.98;;;18.60;99.90;;;;;;5054577;28;20055;-76
2023/08/09 00:09:21;;;;;;;1.98;1.38;;;18.50;99.90;;;;;;5054406;28;20031;-76
2023/08/09 00:11:47;;;;;;;0.55;0.45;;;18.30;99.90;;;;;;5054541;28;20059;-76
2023/08/09 00:14:13;;;;;;;1.02;0.82;;;18.30;99.90;;;;;;5053832;28;20119;-76
2023/08/09 00:16:39;;;;;;;2.92;0.90;;;18.20;99.90;;;;;;5054545;28;20438;-75
2023/08/09 00:19:05;;;;;;;0.00;0.00;;;18.20;99.90;;;;;;5036315;28;20389;-77
2023/08/09 00:21:31;;;;;;;0.40;0.40;;;18.00;99.90;;;;;;5054069;28;20496;-75
2023/08/09 00:23:58;;;;;;;0.00;0.00;;;17.90;99.90;;;;;;5052823;28;20037;-75
2023/08/09 00:26:25;;;;;;;0.00;0.00;;;18.00;99.90;;;;;;5038386;28;20029;-75
2023/08/09 00:28:52;;;;;;;0.00;0.00;;;18.10;99.90;;;;;;5057259;28;20025;-76
2023/08/09 00:31:18;;;;;;;0.40;0.30;;;18.20;99.90;;;;;;5041156;28;20052;-75
2023/08/09 00:33:45;;;;;;;0.00;0.00;;;18.30;99.90;;;;;;5054035;28;20059;-76
2023/08/09 00:36:11;;;;;;;0.00;0.00;;;18.20;99.90;;;;;;5035810;28;20120;-77
2023/08/09 00:38:36;;;;;;;0.00;0.00;;;18.20;99.90;;;;;;5053590;28;20569;-77
2023/08/09 00:41:03;;;;;;;0.00;0.00;;;18.30;99.90;;;;;;5053166;28;20078;-76
2023/08/09 00:43:29;;;;;;;0.00;0.00;;;18.40;99.90;;;;;;5052731;28;20048;-77
2023/08/09 00:45:55;;;;;;;0.28;0.28;;;18.20;99.90;;;;;;5035818;28;20041;-77
2023/08/09 00:48:23;;;;;;;0.00;0.00;;;18.30;99.90;;;;;;5035555;28;20033;-77
2023/08/09 00:50:48;;;;;;;0.00;0.00;;;18.10;99.90;;;;;;5034186;28;20885;-77
2023/08/09 00:53:15;;;;;;;0.00;0.00;;;17.90;99.90;;;;;;5053241;28;20104;-76
2023/08/09 00:55:41;;;;;;;0.00;0.00;;;17.70;99.90;;;;;;5035253;28;20029;-76
2023/08/09 00:58:07;;;;;;;0.00;0.00;;;17.70;99.90;;;;;;5035518;28;20082;-77
2023/08/09 01:00:33;;;;;;;0.00;0.00;;;17.80;99.90;;;;;;5035527;28;20057;-75
2023/08/09 01:02:59;;;;;;;0.00;0.00;;;17.50;99.90;;;;;;5053534;28;20033;-76
2023/08/09 01:05:33;;;;;;;0.00;0.00;;;17.40;99.90;;;;;;5035347;28;20079;-76
2023/08/09 01:08:03;;;;;;;0.00;0.00;;;17.30;99.90;;;;;;5035436;28;20048;-75
2023/08/09 01:10:33;;;;;;;2.20;1.65;;;17.10;99.90;;;;;;5035112;28;20033;-76
2023/08/09 01:13:06;;;;;;;0.00;0.00;;;17.00;99.90;;;;;;5035130;28;20393;-75
2023/08/09 01:15:38;;;;;;;0.40;0.30;;;17.00;99.90;;;;;;5053163;28;20028;-75
2023/08/09 01:18:06;;;;;;;0.00;0.00;;;17.00;99.90;;;;;;5035018;28;20444;-76
2023/08/09 01:20:34;;;;;;;0.00;0.00;;;17.10;99.90;;;;;;5035424;28;20370;-77
2023/08/09 01:23:05;;;;;;;0.38;0.38;;;17.20;99.90;;;;;;5052777;28;20548;-77
2023/08/09 01:25:32;;;;;;;0.00;0.00;;;17.10;99.90;;;;;;5053207;28;20040;-76
2023/08/09 01:27:58;;;;;;;0.00;0.00;;;17.20;99.90;;;;;;5034987;28;20450;-75
2023/08/09 01:30:24;;;;;;;0.00;0.00;;;17.40;99.90;;;;;;5052443;28;20025;-77
2023/08/09 01:32:50;;;;;;;0.00;0.00;;;17.80;99.90;;;;;;5053358;28;20359;-78
2023/08/09 01:35:17;;;;;;;0.00;0.00;;;17.60;99.90;;;;;;5035057;28;20017;-77
2023/08/09 01:38:05;;;;;;;0.00;0.00;;;17.70;99.90;;;;;;5035252;28;20056;-78
2023/08/09 01:40:32;;;;;;;0.00;0.00;;;17.60;99.90;;;;;;5052820;28;20418;-77
2023/08/09 01:42:59;;;;;;;0.00;0.00;;;17.60;99.90;;;;;;5053527;28;20063;-76
2023/08/09 01:45:26;;;;;;;0.00;0.00;;;17.50;99.90;;;;;;5053417;28;20044;-78
2023/08/09 01:47:52;;;;;;;0.28;0.28;;;17.80;99.90;;;;;;5035026;28;20389;-78
2023/08/09 01:50:27;;;;;;;0.00;0.00;;;17.50;99.90;;;;;;5052649;28;20025;-77
2023/08/09 01:52:56;;;;;;;0.00;0.00;;;17.40;99.90;;;;;;5034560;28;20024;-73
2023/08/09 01:55:25;;;;;;;0.00;0.00;;;17.50;99.90;;;;;;5052379;28;20041;-77
2023/08/09 01:57:51;;;;;;;0.00;0.00;;;17.40;99.90;;;;;;5018721;28;20029;-76
2023/08/09 02:00:19;;;;;;;0.00;0.00;;;17.50;99.90;;;;;;5034299;28;20021;-77
2023/08/09 02:02:46;;;;;;;0.00;0.00;;;17.30;99.90;;;;;;5052336;28;20083;-77
2023/08/09 02:05:12;;;;;;;0.10;0.10;;;17.30;99.90;;;;;;5052581;28;20102;-77
2023/08/09 02:07:39;;;;;;;0.03;0.03;;;17.20;99.90;;;;;;5034472;28;20056;-77
2023/08/09 02:10:10;;;;;;;0.00;0.00;;;17.30;99.90;;;;;;5052088;28;20112;-77
2023/08/09 02:12:40;;;;;;;0.00;0.00;;;17.40;99.90;;;;;;5052415;28;20115;-77
2023/08/09 02:15:06;;;;;;;0.00;0.00;;;17.30;99.90;;;;;;5052662;28;20029;-77
2023/08/09 02:17:34;;;;;;;0.35;0.35;;;17.30;99.90;;;;;;5034412;28;20021;-73
2023/08/09 02:19:59;;;;;;;0.00;0.00;;;17.30;99.90;;;;;;5052573;28;20021;-77
2023/08/09 02:22:25;;;;;;;0.57;0.32;;;17.30;99.90;;;;;;5051972;28;20033;-77
2023/08/09 02:24:54;;;;;;;0.00;0.00;;;17.30;99.90;;;;;;5051986;28;20025;-76
2023/08/09 02:27:20;;;;;;;0.00;0.00;;;17.30;99.90;;;;;;5034392;28;20033;-77
2023/08/09 02:29:46;;;;;;;0.00;0.00;;;17.30;99.90;;;;;;5052286;28;20099;-76
2023/08/09 02:32:12;;;;;;;0.10;0.10;;;17.30;99.90;;;;;;5034163;28;20021;-77
2023/08/09 02:34:38;;;;;;;0.15;0.15;;;17.30;99.90;;;;;;5034440;28;20021;-75
2023/08/09 02:37:04;;;;;;;0.00;0.00;;;17.30;99.90;;;;;;5034639;28;20021;-74
2023/08/09 02:39:31;;;;;;;0.10;0.10;;;17.20;99.90;;;;;;5034114;28;20060;-75
2023/08/09 02:41:58;;;;;;;0.00;0.00;;;17.20;99.90;;;;;;5051933;28;20079;-76
2023/08/09 02:44:25;;;;;;;0.00;0.00;;;17.20;99.90;;;;;;5052037;28;20048;-75
2023/08/09 02:46:51;;;;;;;0.00;0.00;;;17.10;99.90;;;;;;5034283;28;20473;-77
2023/08/09 02:49:16;;;;;;;0.00;0.00;;;17.30;99.90;;;;;;5051953;28;20033;-76
2023/08/09 02:51:44;;;;;;;0.20;0.20;;;17.30;99.90;;;;;;5034187;28;20029;-75
2023/08/09 02:54:10;;;;;;;0.10;0.10;;;17.20;99.90;;;;;;5034081;28;20446;-76
2023/08/09 02:56:36;;;;;;;0.10;0.10;;;17.10;99.90;;;;;;5034243;28;20386;-76
2023/08/09 02:59:02;;;;;;;0.10;0.10;;;17.10;99.90;;;;;;5033899;28;20021;-76
2023/08/09 03:01:29;;;;;;;0.00;0.00;;;17.10;99.90;;;;;;5017938;28;20025;-75
2023/08/09 03:03:56;;;;;;;0.00;0.00;;;17.10;99.90;;;;;;5033919;28;20045;-75
2023/08/09 03:06:22;;;;;;;0.00;0.00;;;17.10;99.90;;;;;;5037028;28;20403;-76
2023/08/09 03:08:49;;;;;;;0.00;0.00;;;17.10;99.90;;;;;;5055213;28;20025;-76
2023/08/09 03:11:23;;;;;;;0.00;0.00;;;17.20;99.90;;;;;;5055663;28;20053;-76
2023/08/09 03:13:51;;;;;;;0.00;0.00;;;17.30;99.90;;;;;;5037409;28;20538;-75
2023/08/09 03:16:18;;;;;;;0.00;0.00;;;17.60;99.90;;;;;;5037478;28;20017;-76
2023/08/09 03:18:44;;;;;;;0.00;0.00;;;17.70;99.90;;;;;;5037504;28;20025;-75
2023/08/09 03:21:09;;;;;;;0.00;0.00;;;17.90;99.90;;;;;;5037059;28;20033;-76
2023/08/09 03:23:36;;;;;;;0.00;0.00;;;17.70;99.90;;;;;;5054645;28;20091;-75
2023/08/09 03:26:03;;;;;;;0.00;0.00;;;17.80;99.90;;;;;;5037275;28;20029;-76
2023/08/09 03:28:29;;;;;;;0.00;0.00;;;17.80;99.90;;;;;;5020865;28;20025;-75
2023/08/09 03:30:56;;;;;;;0.00;0.00;;;17.90;99.90;;;;;;5037369;28;20031;-76
2023/08/09 03:33:23;;;;;;;0.00;0.00;;;17.90;99.90;;;;;;5020651;28;20017;-75
2023/08/09 03:35:48;;;;;;;2.78;2.55;;;17.70;99.90;;;;;;5037199;28;20071;-76
2023/08/09 03:38:15;;;;;;;0.00;0.00;;;17.90;99.90;;;;;;5054570;28;20467;-76
2023/08/09 03:40:41;;;;;;;0.00;0.00;;;17.80;99.90;;;;;;5037433;28;20037;-76
2023/08/09 03:43:07;;;;;;;0.00;0.00;;;17.70;99.90;;;;;;5036779;28;20436;-75
2023/08/09 03:45:34;;;;;;;0.00;0.00;;;17.70;99.90;;;;;;5037063;28;20059;-76
2023/08/09 03:48:00;;;;;;;0.00;0.00;;;17.40;99.90;;;;;;5037085;28;20033;-76
2023/08/09 03:50:26;;;;;;;0.00;0.00;;;17.20;99.90;;;;;;5036632;28;20354;-76
2023/08/09 03:52:52;;;;;;;0.00;0.00;;;17.10;99.90;;;;;;5036753;28;20066;-75
2023/08/09 03:55:19;;;;;;;0.00;0.00;;;17.30;99.90;;;;;;5036579;28;20032;-76
2023/08/09 03:57:45;;;;;;;0.00;0.00;;;17.10;99.90;;;;;;5054824;28;20026;-75
2023/08/09 04:00:17;;;;;;;0.00;0.00;;;17.10;99.90;;;;;;5036510;28;20033;-76
2023/08/09 04:02:45;;;;;;;0.38;0.38;;;17.10;99.90;;;;;;5036548;28;20039;-76
2023/08/09 04:05:12;;;;;;;0.17;0.17;;;17.10;99.90;;;;;;5054402;28;20110;-76
2023/08/09 04:07:38;;;;;;;0.00;0.00;;;16.80;99.90;;;;;;5036092;28;20384;-76
2023/08/09 04:10:06;;;;;;;0.00;0.00;;;16.60;99.90;;;;;;5054388;28;20469;-76
2023/08/09 04:12:34;;;;;;;0.00;0.00;;;16.40;99.90;;;;;;5036468;28;20025;-76
2023/08/09 04:15:00;;;;;;;0.00;0.00;;;16.50;99.90;;;;;;5054215;28;20076;-77
2023/08/09 04:17:26;;;;;;;0.00;0.00;;;16.60;99.90;;;;;;5036186;28;20060;-76
2023/08/09 04:19:52;;;;;;;0.00;0.00;;;16.60;99.90;;;;;;5035737;28;20029;-75
2023/08/09 04:22:18;;;;;;;0.00;0.00;;;16.30;99.90;;;;;;5035174;28;20179;-76
2023/08/09 04:24:44;;;;;;;0.15;0.15;;;16.30;99.90;;;;;;5053637;28;20057;-75
2023/08/09 04:27:11;;;;;;;0.00;0.00;;;16.30;99.90;;;;;;5053986;28;20032;-75
2023/08/09 04:29:37;;;;;;;0.13;0.13;;;16.20;99.90;;;;;;5053694;28;20481;-76
2023/08/09 04:32:03;;;;;;;2.25;1.88;;;16.20;99.90;;;;;;5054074;28;20033;-76
2023/08/09 04:34:29;;;;;;;0.00;0.00;;;16.00;99.90;;;;;;5053820;28;20024;-76
2023/08/09 04:36:55;;;;;;;0.00;0.00;;;16.20;99.90;;;;;;5053818;28;20478;-76
2023/08/09 04:39:23;;;;;;;0.00;0.00;;;16.30;99.90;;;;;;5053926;28;20056;-75
2023/08/09 04:41:49;;;;;;;0.00;0.00;;;16.30;99.90;;;;;;5035904;28;20063;-75
2023/08/09 04:44:15;;;;;;;0.00;0.00;;;16.40;99.90;;;;;;5053697;28;20060;-75
2023/08/09 04:46:41;;;;;;;0.00;0.00;;;16.40;99.90;;;;;;5053584;28;20778;-76
2023/08/09 04:49:07;;;;;;;0.00;0.00;;;16.50;99.90;;;;;;5053419;28;20500;-76
2023/08/09 04:51:33;;;;;;;0.00;0.00;;;16.50;99.90;;;;;;5035648;28;20393;-76
2023/08/09 04:53:58;;;;;;;0.00;0.00;;;16.50;99.90;;;;;;5053547;28;20028;-76
2023/08/09 04:56:24;;;;;;;0.00;0.00;;;16.40;99.90;;;;;;5035741;28;20404;-76
2023/08/09 04:58:50;;;;;;;0.00;0.00;;;16.50;99.90;;;;;;5053371;28;20478;-76
2023/08/09 05:01:16;;;;;;;0.00;0.00;;;16.50;99.90;;;;;;5053288;28;20063;-75
2023/08/09 05:03:42;;;;;;;0.00;0.00;;;16.40;99.90;;;;;;5045188;28;20089;-74
2023/08/09 05:06:08;;;;;;;0.00;0.00;;;16.40;99.90;;;;;;5051213;28;20457;-74
2023/08/09 05:08:34;;;;;;;0.00;0.00;;;16.30;99.90;;;;;;5052072;28;20044;-74
2023/08/09 05:11:00;;;;;;;0.00;0.00;;;16.30;99.90;;;;;;5035136;28;20025;-74
2023/08/09 05:13:25;;;;;;;0.00;0.00;;;16.20;99.90;;;;;;5035348;28;20405;-74
2023/08/09 05:15:52;;;;;;;0.00;0.00;;;16.10;99.90;;;;;;5053027;28;20469;-74
2023/08/09 05:18:18;;;;;;;0.00;0.00;;;16.30;99.90;;;;;;5052676;28;20098;-74
2023/08/09 05:20:44;;;;;;;0.00;0.00;;;16.30;99.90;;;;;;5052985;28;20029;-74
2023/08/09 05:23:09;;;;;;;0.38;0.17;;;16.30;99.90;;;;;;5052629;28;20037;-74
2023/08/09 05:25:35;;;;;;;0.00;0.00;;;16.60;99.90;;;;;;5053076;28;20535;-73
2023/08/09 05:28:02;;;;;;;0.00;0.00;;;16.70;99.90;;;;;;5034389;28;20036;-74
2023/08/09 05:30:28;;;;;;;0.00;0.00;;;16.70;99.90;;;;;;5053049;28;20104;-75
2023/08/09 05:32:54;;;;;;;0.00;0.00;;;16.80;99.90;;;;;;5034610;28;20104;-74
2023/08/09 05:35:19;;;;;;;0.00;0.00;;;16.80;99.90;;;;;;5052901;28;20457;-74
2023/08/09 05:37:45;;;;;;;0.10;0.10;;;16.80;99.90;;;;;;5052839;28;20068;-78
2023/08/09 05:40:13;;;;;;;0.00;0.00;;;16.80;99.90;;;;;;5052413;28;20052;-74
2023/08/09 05:42:40;;;;;;;0.00;0.00;;;16.80;99.90;;;;;;5042002;28;20497;-74
2023/08/09 05:45:06;;;;;;;0.00;0.00;;;16.80;99.90;;;;;;5058160;28;20550;-74
2023/08/09 05:47:32;;;;;;;0.00;0.00;;;16.60;99.90;;;;;;5052190;28;20025;-73
2023/08/09 05:49:58;;;;;;;0.00;0.00;;;16.70;99.90;;;;;;5037662;28;20024;-73
2023/08/09 05:52:23;;;;;;;0.05;0.05;;;16.90;99.90;;;;;;5049996;28;20380;-73
2023/08/09 05:54:49;;;;;;;0.00;0.00;;;16.80;99.90;;;;;;5046263;28;20440;-73
2023/08/09 05:57:15;;;;;;;0.00;0.00;;;16.90;99.90;;;;;;5051731;28;20037;-76
2023/08/09 05:59:41;;;;;;;3.03;0.50;;;16.70;99.90;;;;;;5047358;28;20029;-73
2023/08/09 06:02:07;;;;;;;0.00;0.00;;;16.70;99.90;;;;;;5048990;28;20029;-74
2023/08/09 06:04:33;;;;;;;0.25;0.25;;;16.90;99.90;;;;;;5064088;28;20029;-73
2023/08/09 06:06:59;;;;;;;0.10;0.10;;;17.20;99.90;;;;;;5033936;28;20501;-73
2023/08/09 06:09:25;;;;;;;0.45;0.32;;;17.20;99.90;;;;;;5032548;28;20047;-73
2023/08/09 06:11:51;;;;;;;0.00;0.00;;;17.00;99.90;;;;;;5051306;28;20474;-73
2023/08/09 06:14:17;;;;;;;0.00;0.00;;;17.00;99.90;;;;;;5051607;28;20363;-74
2023/08/09 06:16:46;;;;;;;0.22;0.22;;;17.20;99.90;;;;;;5033508;28;20029;-73
2023/08/09 06:19:12;;;;;;;0.03;0.03;;;17.40;99.90;;;;;;5051354;28;20072;-74
2023/08/09 06:21:38;;;;;;;0.35;0.35;;;17.70;99.90;;;;;;5054852;28;20037;-73
2023/08/09 06:24:05;;;;;;;0.70;0.70;;;17.90;99.90;;;;;;5051601;28;20067;-73
2023/08/09 06:26:32;;;;;;;0.45;0.45;;;18.00;99.90;;;;;;5051394;28;20456;-74
2023/08/09 06:28:58;;;;;;;0.10;0.10;;;17.70;99.90;;;;;;5033564;28;20036;-74
2023/08/09 06:31:24;;;;;;;8.40;3.65;;;17.70;99.90;;;;;;5051136;28;20480;-73
2023/08/09 06:33:50;;;;;;;1.70;1.23;;;17.20;99.90;;;;;;5033497;28;20033;-76
2023/08/09 06:36:16;;;;;;;0.05;0.05;;;17.10;99.90;;;;;;5033495;28;20099;-73
2023/08/09 06:38:42;;;;;;;0.00;0.00;;;17.50;99.90;;;;;;5049609;28;20123;-73
2023/08/09 06:41:07;;;;;;;0.32;0.32;;;17.70;99.90;;;;;;5046757;28;20025;-73
2023/08/09 06:43:33;;;;;;;1.13;0.60;;;18.00;99.90;;;;;;5036727;28;20040;-74
2023/08/09 06:46:02;;;;;;;0.20;0.20;;;18.10;99.90;;;;;;5055087;28;20020;-73
2023/08/09 06:48:29;;;;;;;2.45;1.02;;;17.70;99.90;;;;;;5054959;28;20029;-73
2023/08/09 06:51:00;;;;;;;1.05;0.35;;;17.80;99.90;;;;;;5037234;28;20059;-73
2023/08/09 06:53:26;;;;;;;0.22;0.22;;;18.00;99.90;;;;;;5054992;28;20124;-74
2023/08/09 06:55:53;;;;;;;0.10;0.10;;;18.00;99.90;;;;;;5057457;28;20041;-73
2023/08/09 06:58:19;;;;;;;0.82;0.73;;;18.20;99.90;;;;;;5036893;28;20435;-74
2023/08/09 07:00:46;;;;;;;0.57;0.57;;;18.60;99.90;;;;;;5052188;28;20401;-73
2023/08/09 07:03:12;;;;;;;0.10;0.10;;;18.20;99.90;;;;;;5046282;28;20044;-76
2023/08/09 07:05:38;;;;;;;0.00;0.00;;;18.10;99.90;;;;;;5020452;28;20032;-73
2023/08/09 07:08:04;;;;;;;2.08;0.45;;;18.10;99.90;;;;;;5054512;28;20032;-74
2023/08/09 07:10:30;;;;;;;0.80;0.80;;;18.10;99.90;;;;;;5054499;28;20017;-73
2023/08/09 07:12:56;;;;;;;5.05;2.72;;;18.00;99.90;;;;;;5024076;28;20025;-74
2023/08/09 07:15:22;;;;;;;2.28;0.65;;;18.20;99.90;;;;;;5054457;28;20465;-73
2023/08/09 07:17:49;;;;;;;0.55;0.47;;;18.00;99.90;;;;;;5054606;28;20056;-74
2023/08/09 07:20:15;;;;;;;5.53;2.53;;;17.80;99.90;;;;;;5043574;28;20017;-73
2023/08/09 07:22:42;;;;;;;0.00;0.00;;;17.90;99.90;;;;;;5054149;28;20029;-73
2023/08/09 07:25:08;;;;;;;0.00;0.00;;;17.90;99.90;;;;;;5054360;28;20123;-72
2023/08/09 07:27:41;;;;;;;0.30;0.10;;;18.10;99.90;;;;;;5054214;28;20075;-72
2023/08/09 07:30:09;;;;;;;0.98;0.75;;;18.40;99.90;;;;;;5035233;28;20029;-73
2023/08/09 07:32:35;;;;;;;0.05;0.05;;;18.70;99.90;;;;;;5054553;28;20051;-72
2023/08/09 07:35:03;;;;;;;2.05;1.65;;;18.70;99.90;;;;;;5054129;28;20119;-73
2023/08/09 07:37:30;;;;;;;0.00;0.00;;;18.60;99.90;;;;;;5054417;28;20067;-73
2023/08/09 07:39:55;;;;;;;0.10;0.10;;;18.80;99.90;;;;;;5053900;28;20033;-74
2023/08/09 07:42:21;;;;;;;3.63;1.85;;;19.10;99.90;;;;;;5052640;28;20024;-73
2023/08/09 07:44:47;;;;;;;0.03;0.03;;;19.00;99.90;;;;;;5053355;28;20036;-73
2023/08/09 07:47:13;;;;;;;0.20;0.20;;;19.10;99.90;;;;;;5053816;28;20036;-72
2023/08/09 07:49:38;;;;;;;0.03;0.03;;;19.00;99.90;;;;;;5051448;28;20029;-74
2023/08/09 07:52:04;;;;;;;4.70;1.35;;;18.80;99.90;;;;;;5053205;28;20028;-73
2023/08/09 07:54:30;;;;;;;0.20;0.20;;;18.90;99.90;;;;;;5052972;28;20029;-73
2023/08/09 07:56:56;;;;;;;0.43;0.43;;;19.20;99.90;;;;;;5053747;28;20112;-73
2023/08/09 07:59:22;;;;;;;1.08;0.90;;;19.80;99.90;;;;;;5053479;28;20051;-73
2023/08/09 08:01:48;;;;;;;0.60;0.60;;;19.70;99.90;;;;;;5036174;28;20767;-73
2023/08/09 08:04:14;;;;;;;0.73;0.73;;;19.30;99.90;;;;;;5053459;28;20029;-72
2023/08/09 08:06:40;;;;;;;0.08;0.08;;;19.10;99.90;;;;;;5035674;28;20500;-73
2023/08/09 08:09:10;;;;;;;2.30;0.47;;;18.50;99.90;;;;;;5048779;28;20040;-72
2023/08/09 08:11:39;;;;;;;0.20;0.20;;;18.70;99.90;;;;;;5053621;28;20021;-72
2023/08/09 08:14:06;;;;;;;0.98;0.73;;;18.60;99.90;;;;;;5053095;28;20025;-73
2023/08/09 08:16:32;;;;;;;0.00;0.00;;;18.70;99.90;;;;;;5028608;28;20044;-73
2023/08/09 08:18:57;;;;;;;0.28;0.28;;;18.60;99.90;;;;;;5053646;28;20044;-74
2023/08/09 08:21:23;;;;;;;0.00;0.00;;;18.40;99.90;;;;;;5035468;28;20017;-73
2023/08/09 08:23:49;;;;;;;0.00;0.00;;;18.80;99.90;;;;;;5035517;28;20489;-72
2023/08/09 08:26:15;;;;;;;1.63;1.13;;;19.40;99.90;;;;;;5049243;28;20389;-72
2023/08/09 08:28:41;;;;;;;0.90;0.90;;;19.30;99.90;;;;;;5052879;28;20781;-73
2023/08/09 08:31:07;;;;;;;1.15;0.50;;;19.20;99.90;;;;;;5052886;28;20051;-73
2023/08/09 08:33:34;;;;;;;1.85;1.25;;;19.30;99.90;;;;;;5053401;28;20048;-73
2023/08/09 08:36:00;;;;;;;2.30;0.65;;;18.90;99.90;;;;;;5053213;28;20033;-73
2023/08/09 08:38:26;;;;;;;0.15;0.15;;;19.30;99.90;;;;;;5052904;28;20210;-73
2023/08/09 08:40:54;;;;;;;0.05;0.05;;;19.70;99.90;;;;;;5048616;28;20466;-73
2023/08/09 08:43:20;;;;;;;0.47;0.43;;;20.10;99.90;;;;;;5052378;28;20044;-73
2023/08/09 08:45:50;;;;;;;0.00;0.00;;;19.60;99.90;;;;;;5052915;28;20041;-73
2023/08/09 08:48:17;;;;;;;0.15;0.15;;;19.60;99.90;;;;;;5022283;28;20033;-73
2023/08/09 08:50:44;;;;;;;0.10;0.10;;;19.90;99.90;;;;;;5052672;28;20060;-73
2023/08/09 08:53:11;;;;;;;1.23;0.82;;;20.20;99.90;;;;;;5052972;28;20036;-74
2023/08/09 08:55:39;;;;;;;0.75;0.75;;;20.30;99.90;;;;;;5042089;28;20087;-73
2023/08/09 08:58:05;;;;;;;0.25;0.25;;;20.20;99.90;;;;;;5051235;28;20576;-73
2023/08/09 09:00:30;;;;;;;0.00;0.00;;;20.10;99.90;;;;;;5051904;28;20473;-73
2023/08/09 09:02:56;;;;;;;0.47;0.47;;;20.00;99.90;;;;;;5033456;28;20028;-73
2023/08/09 09:05:23;;;;;;;0.10;0.10;;;19.80;99.90;;;;;;5052624;28;20028;-73
2023/08/09 09:07:52;;;;;;;0.17;0.10;;;19.80;99.90;;;;;;5021881;28;20021;-73
2023/08/09 09:10:19;;;;;;;0.10;0.10;;;20.00;99.90;;;;;;5051119;28;20029;-73
2023/08/09 09:12:45;;;;;;;0.10;0.10;;;20.50;99.90;;;;;;5052441;28;20021;-74
2023/08/09 09:15:14;;;;;;;0.15;0.15;;;20.60;99.90;;;;;;5052456;28;20383;-73
2023/08/09 09:17:42;;;;;;;1.13;0.40;;;21.10;99.90;;;;;;5034523;28;20029;-74
2023/08/09 09:20:23;;;;;;;0.03;0.03;;;21.20;99.90;;;;;;5051704;28;20031;-73
2023/08/09 09:22:51;;;;;;;0.65;0.30;;;21.10;99.90;;;;;;5051923;28;20104;-74
2023/08/09 09:25:17;;;;;;;0.10;0.10;;;20.80;99.90;;;;;;5051988;28;20036;-73
2023/08/09 09:27:52;;;;;;;0.35;0.35;;;20.50;99.90;;;;;;5051932;28;20423;-73
2023/08/09 09:30:21;;;;;;;0.30;0.30;;;20.10;99.90;;;;;;5014880;28;20048;-73
2023/08/09 09:33:00;;;;;;;0.17;0.17;;;19.80;99.90;;;;;;5051960;28;20054;-73
2023/08/09 09:35:31;;;;;;;0.20;0.20;;;20.10;99.90;;;;;;5034334;28;20029;-73
2023/08/09 09:37:59;;;;;;;0.10;0.10;;;20.70;99.90;;;;;;5049952;28;20029;-73
2023/08/09 09:40:36;;;;;;;0.60;0.50;;;21.00;99.90;;;;;;5050004;28;20032;-73
2023/08/09 09:43:04;;;;;;;0.10;0.10;;;21.50;99.90;;;;;;5047222;28;20041;-73
2023/08/09 09:45:31;;;;;;;0.65;0.47;;;22.10;99.90;;;;;;5052100;28;20031;-73
2023/08/09 09:47:58;;;;;;;0.75;0.65;;;21.90;99.90;;;;;;5051399;28;20032;-73
2023/08/09 09:50:27;;;;;;;0.80;0.55;;;21.20;99.90;;;;;;5033325;28;20040;-74
2023/08/09 09:52:54;;;;;;;0.45;0.45;;;20.60;99.90;;;;;;5052286;28;20021;-73
2023/08/09 09:55:25;;;;;;;0.38;0.10;;;20.40;99.90;;;;;;5033536;28;20119;-73
2023/08/09 09:57:52;;;;;;;0.10;0.10;;;20.90;99.90;;;;;;5033789;28;20037;-75
2023/08/09 10:00:22;;;;;;;0.17;0.17;;;21.40;99.90;;;;;;5025309;28;20013;-74
2023/08/09 10:02:51;;;;;;;0.43;0.43;;;21.40;99.90;;;;;;5048183;28;20079;-74
2023/08/09 10:05:45;;;;;;;0.35;0.25;;;20.50;99.90;;;;;;5051811;28;20044;-73
2023/08/09 10:08:12;;;;;;;0.20;0.20;;;20.10;99.90;;;;;;5048040;28;20244;-74
2023/08/09 10:10:40;;;;;;;0.00;0.00;;;20.60;99.90;;;;;;5030764;28;20031;-73
2023/08/09 10:13:07;;;;;;;0.25;0.25;;;20.80;99.90;;;;;;5042257;28;20051;-73
2023/08/09 10:15:51;;;;;;;0.77;0.77;;;20.90;99.90;;;;;;5037066;28;20040;-74
2023/08/09 10:18:39;;;;;;;0.25;0.22;;;21.00;99.90;;;;;;5043574;28;20388;-73
2023/08/09 10:21:07;;;;;;;0.00;0.00;;;21.20;99.90;;;;;;5051386;28;20029;-73
2023/08/09 10:23:33;;;;;;;0.10;0.10;;;21.30;99.90;;;;;;5055196;28;20037;-74
2023/08/09 10:25:59;;;;;;;0.28;0.22;;;21.70;99.90;;;;;;5055596;28;20036;-74
2023/08/09 10:28:43;;;;;;;1.13;0.43;;;21.60;99.90;;;;;;5055332;28;20027;-73
2023/08/09 10:31:09;;;;;;;0.80;0.80;;;21.30;99.90;;;;;;5052447;28;20029;-73
2023/08/09 10:33:35;;;;;;;0.38;0.38;;;21.80;99.90;;;;;;5055367;28;20021;-73
2023/08/09 10:36:01;;;;;;;1.45;0.73;;;22.00;99.90;;;;;;5056346;28;20523;-73
2023/08/09 10:38:33;;;;;;;5.57;0.35;;;21.60;99.90;;;;;;5054514;28;20051;-74
2023/08/09 10:41:06;;;;;;;0.00;0.00;;;21.70;99.90;;;;;;5056183;28;20083;-73
2023/08/09 10:43:34;;;;;;;1.33;0.52;;;22.20;99.90;;;;;;5054350;28;20032;-73
2023/08/09 10:46:20;;;;;;;0.57;0.38;;;22.50;99.90;;;;;;5055999;28;20049;-73
2023/08/09 10:48:50;;;;;;;5.22;0.30;;;22.30;99.90;;;;;;5037646;28;20033;-73
2023/08/09 10:51:21;;;;;;;1.20;0.73;;;22.90;99.90;;;;;;5055868;28;20426;-74
2023/08/09 10:54:04;;;;;;;0.35;0.35;;;22.60;99.90;;;;;;5037518;28;20107;-74
2023/08/09 10:56:41;;;;;;;0.25;0.25;;;22.70;99.90;;;;;;5055899;28;20466;-73
2023/08/09 10:59:09;;;;;;;0.43;0.38;;;22.70;99.90;;;;;;5042743;28;20021;-73
2023/08/09 11:01:37;;;;;;;0.03;0.03;;;23.20;99.90;;;;;;5023388;28;20032;-74
2023/08/09 11:04:14;;;;;;;1.67;0.45;;;22.90;99.90;;;;;;5041214;28;20033;-74
2023/08/09 11:06:43;;;;;;;0.17;0.15;;;22.90;99.90;;;;;;5053648;28;20032;-73
2023/08/09 11:09:14;;;;;;;2.45;0.47;;;22.80;99.90;;;;;;5054522;28;20539;-73
2023/08/09 11:11:41;;;;;;;;;;;22.60;99.90;;;;;;5054658;28;20511;-73
2023/08/09 11:14:08;;;;;;;0.20;0.20;;;22.70;99.90;;;;;;5054524;28;19952;-74
2023/08/09 11:16:35;;;;;;;0.45;0.40;;;23.10;99.90;;;;;;5036516;28;20033;-74
2023/08/09 11:19:07;;;;;;;1.17;0.30;;;23.40;99.90;;;;;;5036558;28;20029;-73
2023/08/09 11:21:50;;;;;;;0.28;0.28;;;22.90;99.90;;;;;;5053912;28;20413;-74
2023/08/09 11:24:17;;;;;;;0.55;0.17;;;22.30;99.90;;;;;;5048346;28;20076;-74
2023/08/09 11:26:53;;;;;;;0.10;0.10;;;22.00;99.90;;;;;;5053335;28;20487;-73
2023/08/09 11:29:20;;;;;;;0.10;0.10;;;21.90;99.90;;;;;;5054340;28;20029;-73
2023/08/09 11:31:51;;;;;;;0.00;0.00;;;21.90;99.90;;;;;;5050390;28;20017;-72
2023/08/09 11:34:20;;;;;;;0.00;0.00;;;22.60;99.90;;;;;;5053983;28;20037;-73
2023/08/09 11:36:48;;;;;;;1.73;0.13;;;23.40;99.90;;;;;;5053500;28;20385;-73
2023/08/09 11:39:15;;;;;;;0.00;0.00;;;23.20;99.90;;;;;;5053967;28;20033;-73
2023/08/09 11:41:55;;;;;;;0.95;0.47;;;23.40;99.90;;;;;;5054010;28;20055;-74
2023/08/09 11:44:29;;;;;;;0.20;0.20;;;23.60;99.90;;;;;;5027608;28;20073;-73
2023/08/09 11:46:57;;;;;;;1.92;0.55;;;23.60;99.90;;;;;;5053833;28;20028;-73
2023/08/09 11:49:26;;;;;;;2.85;0.55;;;23.50;99.90;;;;;;5053954;28;20090;-73
2023/08/09 11:51:52;;;;;;;0.32;0.20;;;23.30;99.90;;;;;;5035410;28;20017;-74
2023/08/09 11:54:18;;;;;;;1.08;0.93;;;23.20;99.90;;;;;;5053626;28;20033;-73
2023/08/09 11:56:44;;;;;;;0.45;0.45;;;23.40;99.90;;;;;;5053680;28;20055;-73
2023/08/09 11:59:11;;;;;;;0.00;0.00;;;23.30;99.90;;;;;;5035893;28;20056;-72
2023/08/09 12:01:44;;;;;;;2.58;0.75;;;23.40;99.90;;;;;;5028015;28;20021;-73
2023/08/09 12:04:13;;;;;;;1.15;0.70;;;23.10;99.70;;;;;;5049957;28;20534;-73
2023/08/09 12:06:49;;;;;;;1.55;0.40;;;23.40;99.90;;;;;;5053426;28;20057;-73
2023/08/09 12:09:39;;;;;;;0.00;0.00;;;23.40;99.90;;;;;;5035969;28;20056;-73
2023/08/09 12:12:09;;;;;;;0.98;0.50;;;23.50;99.90;;;;;;5045590;28;20455;-76
2023/08/09 12:14:42;;;;;;;0.30;0.22;;;24.20;99.90;;;;;;5052350;28;20031;-76
2023/08/09 12:17:16;;;;;;;0.15;0.15;;;23.90;99.40;;;;;;5054252;28;20036;-77
2023/08/09 12:19:42;;;;;;;7.13;0.60;;;24.00;99.70;;;;;;5036378;28;20032;-76
2023/08/09 12:22:08;;;;;;;0.00;0.00;;;23.60;99.30;;;;;;5053766;28;20037;-77
2023/08/09 12:24:34;;;;;;;0.20;0.20;;;23.10;99.90;;;;;;5053937;28;20094;-77
2023/08/09 12:27:02;;;;;;;1.25;0.28;;;23.50;99.90;;;;;;5036548;28;20040;-77
2023/08/09 12:29:28;;;;;;;3.40;0.17;;;22.80;99.90;;;;;;5056276;28;20036;-77
2023/08/09 12:31:54;;;;;;;0.00;0.00;;;22.90;99.70;;;;;;5037124;28;20435;-77
2023/08/09 12:34:21;;;;;;;0.10;0.10;;;23.70;99.30;;;;;;5054323;28;20037;-75
2023/08/09 12:36:47;;;;;;;0.52;0.20;;;23.70;97.30;;;;;;5053139;28;20032;-72
2023/08/09 12:39:14;;;;;;;0.35;0.32;;;23.50;96.70;;;;;;5053340;28;20025;-73
2023/08/09 12:41:41;;;;;;;1.33;0.88;;;23.20;97.90;;;;;;5053651;28;20040;-74
2023/08/09 12:44:07;;;;;;;0.20;0.20;;;23.30;98.80;;;;;;5054111;28;20029;-72
2023/08/09 12:46:36;;;;;;;0.00;0.00;;;23.40;97.60;;;;;;5053481;28;20465;-73
2023/08/09 12:49:02;;;;;;;0.00;0.00;;;22.90;98.40;;;;;;5055849;28;20345;-72
2023/08/09 12:51:29;;;;;;;0.35;0.35;;;22.60;98.20;;;;;;5053241;28;20033;-72